Aviation Digital Data Service (ADDS)

Output produced by METARs form (0957 UTC 19 January 2019)
found at http://www.aviationweather.gov/metar/data/
 
KASJ 190940Z AUTO 00000KT 10SM OVC050 06/03 A3016 RMK AO2 T00580030
KVUJ 190940Z AUTO 06003KT 10SM OVC050 06/05 A3012 RMK AO2 LTG DSNT W T00620045
KRHP 190940Z AUTO 00000KT 10SM OVC028 04/04 A2998 RMK AO2 T00400040
KHBI 190945Z AUTO 00000KT 10SM OVC049 07/04 A3010 RMK AO2 T00700036
KAVL 190954Z AUTO 15006KT 1 1/2SM R35/5000VP6000FT BR OVC002 06/05 A3002 RMK AO2 SLP163 T00610050 $
KAVL 190910Z 1909/2006 15005KT 3SM BR VCSH OVC002 
     TEMPO 1911/1913 1SM BR OVC002 
     FM191300 15008KT 1/2SM -RA FG OVC003 
     FM200000 17011G18KT 1SM SHRA BR OVC004 WS020/19045KT 
     FM200500 21006KT 2SM -SHRA BR BKN015
       
KMRH 190858Z AUTO 08003KT 10SM CLR 08/06 A3014 RMK AO2 SLP207 T00780056 58006
KBUY 190954Z AUTO 00000KT 10SM OVC050 07/03 A3008 RMK AO2 SLP188 T00670028
KCLT 190952Z 11003KT 3SM BR FEW013 BKN050 OVC250 07/06 A3007 RMK AO2 SLP183 T00720061
KCLT 190947Z 1910/2012 12003KT 3SM BR SCT005 OVC035 
     TEMPO 1911/1913 2SM BR OVC005 
     FM191300 08004KT 2SM BR VCSH OVC005 
     FM191700 14006KT 1SM -RA BR OVC003 
     FM200200 17012G19KT 1SM SHRA OVC010 WS020/19040KT 
     FM200500 19012G20KT 2SM -SHRA BR OVC020 
     FM200900 25009KT P6SM VCSH SCT025 BKN050
       
KCTZ 190940Z AUTO 00000KT 10SM SCT037 BKN055 08/06 A3011 RMK AO2 T00760062
KONX 190940Z AUTO 7SM OVC050 06/06 A3017 RMK AO2 T00610061
KEDE 190940Z AUTO 05003KT 10SM OVC050 07/06 A3017 RMK AO2 T00740055
KECG 190954Z AUTO 05004KT 10SM OVC050 07/05 A3016 RMK AO2 SLP212 T00670050
KECG 190533Z 1906/2006 04006KT P6SM OVC050 
     FM192100 10008KT P6SM BKN025 
     FM192300 14010KT P6SM OVC020 
     FM200100 16014G22KT P6SM OVC020 WS020/19045KT
       
KEYF 190940Z AUTO 00000KT 5SM SCT027 OVC038 06/06 A3010 RMK AO2 PWINO T00650061
KHRJ 190940Z AUTO 07005KT 10SM SCT031 SCT046 08/06 A3010 RMK AO2 T00750056
KFAY 190953Z 00000KT 9SM FEW027 OVC033 07/05 A3009 RMK AO2 SLP184 T00670050
KFAY 190902Z 1909/2006 05003KT P6SM OVC035 
     TEMPO 1909/1911 5SM BR OVC022 
     FM191100 06002KT P6SM OVC025 
     FM191600 13005KT P6SM -RA OVC015 
     FM191700 13005KT 5SM -RA BR OVC015 
     FM191900 14006KT P6SM BKN025 
     FM192100 16008KT P6SM BKN050 
     FM200100 18011G21KT 3SM -SHRA BR SCT030 OVC090 WS020/19040KT
       
K1A5 190945Z AUTO 00000KT 10SM OVC019 06/06 A3004 RMK AO2 T00610061
KAKH 190954Z AUTO 00000KT 2 1/2SM BR BKN004 BKN011 OVC055 07/05 A3007 RMK AO2 SLP183 T00720050
KGWW 190940Z AUTO 00000KT 7SM OVC050 07/06 A3013 RMK AO2 T00680057
KGSO 190954Z 08004KT 10SM OVC046 06/02 A3007 RMK AO2 SLP185 T00610022
KGSO 190531Z 1906/2006 VRB02KT P6SM OVC035 
     FM191400 09004KT P6SM -RA OVC015 
     FM191600 11004KT 5SM -RA BR OVC010 
     TEMPO 1916/1920 3SM -RADZ BR OVC006 
     FM200000 13005KT 4SM -RADZ BR OVC011 WS020/19040KT 
     FM200300 17012G22KT 6SM -SHRA BR OVC026
       
KPGV 190955Z AUTO 10004KT 10SM SCT060 07/03 A3015 RMK AO2
KPGV 190551Z 1906/2006 00000KT P6SM BKN050 
     FM191700 12010KT P6SM BKN030 
     FM192100 13009KT P6SM OVC015 
     FM200000 15008G13KT P6SM VCSH OVC050 
     FM200500 17012G23KT 6SM -RA OVC050 WS020/20040KT AMD LTD TO CLD VIS AND
WIND
       
KHSE 190951Z AUTO 05005KT CLR 08/07 A3014 RMK AO2 SLP205 T00780067 TSNO $
KGEV 190955Z AUTO 16005KT M1/4SM FG OVC003 03/03 A3002 RMK AO2 T00250025
KDPL 190940Z AUTO 07004KT 2 1/2SM BR SCT003 BKN050 05/05 A3012 RMK AO2
KFFA 190940Z AUTO 00000KT 10SM OVC049 06/05 A3015 RMK AO2 T00640053
KISO 190940Z AUTO 09004KT 10SM OVC050 07/06 A3014 RMK AO2 T00680060
KISO 190551Z 1906/2006 00000KT P6SM SCT050 
     FM191700 12008KT P6SM BKN025 
     FM192300 15009KT P6SM BKN060 
     FM200400 17013G24KT 6SM -RA OVC040 WS020/19040KT AMD LTD TO CLD VIS AND
WIND
       
KEXX 190940Z AUTO 00000KT 10SM OVC049 06/05 A3008 RMK AO2 T00630045
KIPJ 190950Z AUTO 00000KT 1 1/2SM BR SCT003 BKN016 OVC049 06/06 A3007 RMK AO2 T00560056
KLHZ 190940Z AUTO 10SM OVC050 06/05 A3014 RMK AO2
KLBT 190954Z AUTO 00000KT 5SM BR OVC043 08/07 A3009 RMK AO2 SLP188 T00780067
KLBT 190908Z 1909/2006 00000KT 4SM BR BKN040 
     FM191300 11006KT P6SM OVC020 
     FM191700 14009KT P6SM BKN025 
     FM192200 17011G18KT P6SM BKN100 
     FM200000 17012G19KT 6SM SHRA BKN090
       
KMEB 190952Z AUTO 00000KT 2 1/2SM BR SCT025 BKN045 OVC060 06/06 A3009 RMK AO2 SLP190 T00610061
KEQY 190953Z AUTO 00000KT 1 1/2SM BR BKN001 BKN032 OVC055 06/04 A3006 RMK AO2 SLP195 T00560044
KMRN 190940Z AUTO 00000KT 3SM BR OVC004 07/05 A3010 RMK AO2 T00650054
KMWK 190945Z AUTO 08005KT 10SM SCT025 SCT034 OVC043 07/03 A3009 RMK AO2 T00650028
KEWN 190954Z AUTO 09003KT 2 1/2SM BR CLR 05/05 A3014 RMK AO2 SLP205 T00500050
KEWN 190551Z 1906/2006 00000KT 3SM BR SCT200 
     TEMPO 1906/1909 1/2SM FG 
     FM191100 08005KT P6SM BKN130 
     FM191700 11006KT P6SM VCSH BKN030 
     FM200500 18011G21KT P6SM VCSH OVC030 WS020/20040KT
       
KUKF 190940Z AUTO 03004KT 7SM OVC020 05/05 A3012 RMK AO2
KSUT 190940Z AUTO 00000KT 5SM BR CLR 08/08 A3010 RMK AO2 T00830079
KHNZ 190945Z AUTO 12005KT 10SM OVC049 06/03 A3012 RMK AO2 T00560027
KSOP 190919Z AUTO 05003KT 4SM BR FEW026 SCT055 04/04 A3010 RMK AO2
KRDU 190951Z 12008KT 10SM OVC050 07/04 A3010 RMK AO2 SLP191 T00720044
KRDU 190531Z 1906/2006 00000KT P6SM OVC035 
     FM191400 09003KT P6SM -RA OVC025 
     FM192100 15006KT P6SM OVC008 
     FM200000 17009KT 5SM -SHRA BR OVC012 
     FM200200 18009KT 3SM SHRA OVC060 WS020/19040KT
       
KSIF 190940Z AUTO 10SM OVC049 05/03 A3011 RMK AO2 T00460030
KIXA 190940Z AUTO 00000KT 10SM OVC050 06/04 A3015 RMK AO2
KRCZ 190940Z AUTO 00000KT 3SM BR SCT028 OVC055 05/05 A3008 RMK AO2 T00500050
KRWI 190953Z AUTO 11003KT 10SM OVC050 08/03 A3014 RMK AO2 SLP205 T00780033
KRWI 190531Z 1906/2006 00000KT P6SM OVC040 
     FM191000 09002KT P6SM SCT030 
     FM191400 11004KT P6SM OVC030 
     FM191800 13004KT P6SM OVC020 
     FM192200 15007KT P6SM OVC008 
     FM200000 16009KT 5SM -SHRA BR OVC030 
     FM200100 18009KT 3SM -SHRA BR OVC035 WS020/19040KT
       
KTDF 190500Z AUTO 00000KT 10SM OVC043 06/03 A3018 RMK AO2
KFQD 190940Z AUTO 00000KT 4SM BR OVC010 06/06 A3007 RMK AO2
KRUQ 190940Z AUTO 00000KT 10SM OVC049 05/05 A3008 RMK AO2 T00520050
KTTA 190945Z AUTO 00000KT 10SM SCT032 OVC050 04/04 A3010 RMK AO2 T00400040
KEHO 190945Z AUTO 00000KT 1 1/4SM BR OVC005 06/06 A3007 RMK AO2 T00580058
KJNX 190955Z AUTO 00000KT 10SM OVC050 07/07 A3011 RMK AO2
KSVH 190940Z AUTO 00000KT 5SM BR OVC050 06/05 A3007 RMK AO2 T00550048
K24A 190940Z AUTO 14005KT 10SM OVC023 07/05 A3001 RMK AO2 LTG DSNT W T00670046
KETC 190940Z AUTO 10004KT 10SM OVC050 07/04 A3014 RMK AO2 T00730036
KAFP 190940Z AUTO 00000KT 4SM BR OVC060 04/03 A3009 RMK AO2 T00380031
KOCW 190940Z AUTO 07003KT 10SM SCT050 06/05 A3015 RMK AO2 T00610045
KCPC 190940Z AUTO 00000KT 7SM OVC070 08/08 A3009 RMK AO2 T00810075
KILM 190953Z AUTO 06003KT 4SM BR FEW060 07/06 A3010 RMK AO2 SLP193 T00720061
KILM 190908Z 1909/2006 00000KT 5SM BR BKN050 
     FM191100 09005KT P6SM BKN015 
     FM192100 16009KT P6SM BKN120 
     FM200400 18012G19KT P6SM BKN150
       
KINT 190954Z 04003KT 10SM OVC047 06/02 A3009 RMK AO2 SLP189 T00610022
KINT 190531Z 1906/2006 VRB02KT P6SM OVC035 
     FM191400 09004KT P6SM -RA OVC015 
     FM191600 11004KT 5SM -RA BR OVC010 
     TEMPO 1916/1920 3SM -RADZ BR OVC006 
     FM200000 13005KT 4SM -RADZ BR OVC011 WS020/19040KT 
     FM200300 17012G22KT 6SM -SHRA BR OVC026